METAR Data
IDs: Format: Raw Decoded Include TAF

Data at: 0141 UTC 01 Mar 2021

KMLB 010053Z 15010KT 10SM CLR 24/22 A3012 RMK AO2 SLP198 T02440222 $

KMLB 282341Z 0100/0124 16008KT P6SM SCT030 SCT300
  FM011400 19010KT P6SM SCT025 BKN250
  FM012130 15011KT P6SM SCT040 BKN250


KTIX 010047Z 17010KT 7SM CLR 26/22 A3013

KTIX 282341Z 0100/0124 15007KT P6SM SCT050 SCT300
  FM011400 20011KT P6SM SCT025 BKN250 AMD NOT SKED 0102/0112


KCOF 010056Z AUTO 15010KT 10SM CLR 23/19 A3012 RMK AO2 SLP204 T02290190 $

TAF AMD KCOF 282150Z 2821/0201 14011KT 9999 FEW030 QNH3010INS
  BECMG 0103/0104 18006KT 9999 SKC QNH3000INS TX29/0119Z TN19/0111Z LAST NO AMDS AFT 2822 NEXT 0111


KVRB 010053Z 15010KT 10SM CLR 24/21 A3014 RMK AO2 SLP203 T02390211

KVRB 282341Z 0100/0124 15009KT P6SM SCT030 SCT300
  FM011400 18009KT P6SM SCT025 BKN250
  FM012100 15012G17KT P6SM SCT040 BKN250